createdAt,value
2019-02-15T00:03:52.955Z,5.73
2019-02-15T00:07:57.260Z,5.76
2019-02-15T00:12:01.513Z,5.77
2019-02-15T00:16:05.746Z,5.78
2019-02-15T00:20:14.951Z,5.78
2019-02-15T00:24:19.194Z,5.78
2019-02-15T00:28:23.413Z,5.76
2019-02-15T00:32:27.728Z,5.73
2019-02-15T00:36:31.901Z,5.71
2019-02-15T00:40:36.144Z,5.69
2019-02-15T00:44:40.335Z,5.61
2019-02-15T00:48:44.560Z,5.60
2019-02-15T00:52:54.768Z,5.58
2019-02-15T00:57:21.090Z,5.57
2019-02-15T01:01:35.722Z,5.57
2019-02-15T01:05:59.102Z,5.55
2019-02-15T01:10:25.360Z,5.51
2019-02-15T01:14:29.574Z,5.52
2019-02-15T01:18:34.227Z,5.50
2019-02-15T01:22:38.445Z,5.47
2019-02-15T01:26:45.130Z,5.47
2019-02-15T01:31:08.318Z,5.48
2019-02-15T01:35:18.351Z,5.47
2019-02-15T01:39:28.967Z,5.45
2019-02-15T01:43:46.285Z,5.45
2019-02-15T01:47:51.380Z,5.42
2019-02-15T01:51:55.694Z,5.40
2019-02-15T01:55:59.906Z,5.41
2019-02-15T02:00:04.459Z,5.44
2019-02-15T02:04:08.646Z,5.44
2019-02-15T02:08:19.234Z,5.42
2019-02-15T02:12:23.449Z,5.41
2019-02-15T02:21:31.287Z,5.38
2019-02-15T02:25:35.486Z,5.33
2019-02-15T02:29:39.706Z,5.31
2019-02-15T02:33:43.979Z,5.27
2019-02-15T02:37:48.218Z,5.23
2019-02-15T02:41:52.544Z,5.24
2019-02-15T02:45:56.845Z,5.25
2019-02-15T02:50:03.038Z,5.26
2019-02-15T02:54:07.380Z,5.24
2019-02-15T02:58:11.613Z,5.22
2019-02-15T03:02:15.872Z,5.22
2019-02-15T03:06:20.157Z,5.22
2019-02-15T03:10:24.385Z,5.21
2019-02-15T03:14:28.873Z,5.19
2019-02-15T03:18:33.065Z,5.13
2019-02-15T03:22:37.355Z,5.11
2019-02-15T03:26:41.547Z,5.07
2019-02-15T03:30:46.439Z,5.06
2019-02-15T03:34:50.646Z,5.02
2019-02-15T03:38:59.723Z,5.02
2019-02-15T03:43:03.974Z,5.02
2019-02-15T03:47:08.198Z,5.00
2019-02-15T03:51:12.467Z,4.97
2019-02-15T03:55:16.731Z,4.97
2019-02-15T03:59:20.965Z,4.96
2019-02-15T04:03:25.185Z,4.94
2019-02-15T04:07:29.355Z,4.92
2019-02-15T04:11:33.587Z,4.93
2019-02-15T04:15:37.808Z,4.95
2019-02-15T04:19:42.186Z,4.97
2019-02-15T04:23:46.772Z,4.97
2019-02-15T04:27:51.001Z,4.98
2019-02-15T04:31:55.626Z,4.98
2019-02-15T04:35:59.843Z,4.95
2019-02-15T04:40:04.182Z,4.96
2019-02-15T04:44:08.431Z,4.97
2019-02-15T04:48:12.746Z,4.92
2019-02-15T04:52:16.897Z,4.92
2019-02-15T04:56:21.141Z,4.92
2019-02-15T05:00:25.335Z,4.91
2019-02-15T05:04:29.576Z,4.90
2019-02-15T05:08:34.151Z,4.89
2019-02-15T05:12:38.520Z,4.86
2019-02-15T05:16:43.008Z,4.82
2019-02-15T05:20:47.592Z,4.81
2019-02-15T05:24:51.845Z,4.80
2019-02-15T05:28:56.075Z,4.80
2019-02-15T05:33:00.387Z,4.79
2019-02-15T05:37:04.599Z,4.76
2019-02-15T05:41:08.838Z,4.76
2019-02-15T05:45:13.043Z,4.72
2019-02-15T05:49:17.633Z,4.73
2019-02-15T05:53:21.811Z,4.71
2019-02-15T05:57:26.020Z,4.69
2019-02-15T06:01:30.844Z,4.68
2019-02-15T06:05:35.163Z,4.66
2019-02-15T06:09:39.456Z,4.64
2019-02-15T06:13:43.757Z,4.59
2019-02-15T06:17:48.302Z,4.56
2019-02-15T06:21:52.543Z,4.52
2019-02-15T06:25:57.187Z,4.52
2019-02-15T06:30:03.291Z,4.56
2019-02-15T06:34:07.577Z,4.56
2019-02-15T06:38:12.215Z,4.57
2019-02-15T06:42:16.527Z,4.57
2019-02-15T06:46:20.822Z,4.56
2019-02-15T06:50:25.403Z,4.54
2019-02-15T06:54:29.950Z,4.53
2019-02-15T06:58:35.737Z,4.73
2019-02-15T07:03:02.043Z,4.80
2019-02-15T07:07:06.235Z,4.79
2019-02-15T07:11:10.908Z,4.80
2019-02-15T07:15:15.163Z,4.81
2019-02-15T07:19:19.422Z,4.82
2019-02-15T07:23:23.648Z,4.85
2019-02-15T07:27:28.160Z,4.89
2019-02-15T07:31:32.708Z,4.93
2019-02-15T07:35:36.986Z,4.98
2019-02-15T07:39:41.249Z,5.01
2019-02-15T07:43:45.475Z,5.01
2019-02-15T07:47:49.690Z,5.03
2019-02-15T07:51:53.939Z,5.06
2019-02-15T07:55:58.306Z,5.10
2019-02-15T08:00:02.553Z,5.13
2019-02-15T08:04:06.933Z,5.19
2019-02-15T08:08:11.175Z,5.23
2019-02-15T08:12:15.482Z,5.32
2019-02-15T08:16:19.692Z,5.40
2019-02-15T08:20:23.911Z,5.41
2019-02-15T08:24:28.162Z,5.42
2019-02-15T08:28:32.722Z,5.47
2019-02-15T08:32:36.901Z,5.57
2019-02-15T08:36:41.290Z,5.63
2019-02-15T08:44:47.860Z,5.72
2019-02-15T08:48:52.111Z,5.79
2019-02-15T08:52:56.338Z,5.92
2019-02-15T08:57:00.964Z,6.07
2019-02-15T09:01:05.203Z,6.17
2019-02-15T09:05:11.301Z,6.32
2019-02-15T09:09:15.554Z,6.40
2019-02-15T09:13:19.732Z,6.46
2019-02-15T09:17:23.960Z,6.52
2019-02-15T09:21:28.329Z,6.58
2019-02-15T09:25:32.612Z,6.68
2019-02-15T09:29:36.809Z,6.73
2019-02-15T09:33:41.131Z,6.83
2019-02-15T09:37:45.406Z,6.87
2019-02-15T09:41:49.613Z,6.83
2019-02-15T09:45:53.832Z,6.87
2019-02-15T09:49:58.055Z,6.90
2019-02-15T09:54:02.270Z,6.95
2019-02-15T09:58:06.516Z,7.05
2019-02-15T10:02:10.851Z,7.17
2019-02-15T10:06:15.089Z,7.19
2019-02-15T10:10:19.373Z,7.22
2019-02-15T10:14:23.648Z,7.33
2019-02-15T10:18:27.880Z,7.42
2019-02-15T10:22:32.315Z,7.43
2019-02-15T10:26:36.532Z,7.56
2019-02-15T10:30:40.815Z,7.67
2019-02-15T10:34:44.999Z,7.76
2019-02-15T10:38:49.405Z,7.80
2019-02-15T10:42:53.672Z,7.94
2019-02-15T10:46:57.965Z,8.05
2019-02-15T10:51:02.523Z,8.10
2019-02-15T10:55:07.848Z,8.19
2019-02-15T10:59:12.066Z,8.21
2019-02-15T11:03:16.272Z,8.24
2019-02-15T11:07:20.509Z,8.32
2019-02-15T11:11:24.738Z,8.35
2019-02-15T11:15:28.953Z,8.43
2019-02-15T11:19:33.532Z,8.57
2019-02-15T11:23:37.853Z,8.62
2019-02-15T11:27:42.058Z,8.57
2019-02-15T11:31:46.350Z,8.70
2019-02-15T11:35:50.685Z,8.83
2019-02-15T11:39:54.930Z,8.93
2019-02-15T11:43:59.175Z,8.96
2019-02-15T11:48:03.368Z,9.07
2019-02-15T11:52:07.684Z,9.08
2019-02-15T11:56:11.923Z,9.06
2019-02-15T12:00:21.083Z,9.06
2019-02-15T12:04:25.118Z,9.13
2019-02-15T12:08:29.384Z,9.17
2019-02-15T12:12:34.010Z,9.16
2019-02-15T12:16:38.711Z,9.15
2019-02-15T12:20:42.958Z,9.19
2019-02-15T12:24:47.175Z,9.22
2019-02-15T12:28:51.711Z,9.25
2019-02-15T12:32:56.585Z,9.19
2019-02-15T12:37:00.837Z,9.23
2019-02-15T12:45:09.404Z,9.16
2019-02-15T12:49:13.678Z,9.30
2019-02-15T12:53:17.932Z,9.35
2019-02-15T12:57:22.162Z,9.41
2019-02-15T13:01:26.426Z,9.40
2019-02-15T13:05:30.660Z,9.42
2019-02-15T13:09:34.862Z,9.51
2019-02-15T13:13:39.089Z,9.50
2019-02-15T13:17:43.504Z,9.51
2019-02-15T13:21:48.072Z,9.56
2019-02-15T13:25:52.626Z,9.62
2019-02-15T13:29:57.192Z,9.70
2019-02-15T13:34:01.773Z,9.72
2019-02-15T13:38:06.228Z,9.69
2019-02-15T13:42:10.466Z,9.79
2019-02-15T13:46:14.955Z,9.84
2019-02-15T13:50:19.411Z,9.83
2019-02-15T13:54:23.771Z,9.84
2019-02-15T13:58:28.179Z,9.77
2019-02-15T14:02:32.516Z,9.84
2019-02-15T14:06:36.943Z,9.87
2019-02-15T14:10:41.190Z,9.87
2019-02-15T14:14:45.428Z,9.90
2019-02-15T14:18:49.625Z,9.91
2019-02-15T14:22:53.899Z,9.97
2019-02-15T14:26:58.131Z,10.00
2019-02-15T14:31:02.329Z,10.05
2019-02-15T14:35:07.163Z,10.09
2019-02-15T14:39:12.528Z,10.14
2019-02-15T14:43:17.096Z,10.16
2019-02-15T14:47:21.343Z,10.18
2019-02-15T14:51:25.632Z,10.18
2019-02-15T14:55:29.820Z,10.22
2019-02-15T14:59:34.075Z,10.25
2019-02-15T15:03:38.274Z,10.26
2019-02-15T15:07:42.586Z,10.24
2019-02-15T15:11:47.069Z,10.26
2019-02-15T15:15:51.377Z,10.28
2019-02-15T15:19:55.613Z,10.32
2019-02-15T15:23:59.870Z,10.35
2019-02-15T15:28:04.157Z,10.40
2019-02-15T15:32:08.769Z,10.41
2019-02-15T15:36:13.277Z,10.36
2019-02-15T15:40:17.570Z,10.32
2019-02-15T15:44:21.846Z,10.35
2019-02-15T15:48:26.285Z,10.35
2019-02-15T15:52:30.533Z,10.35
2019-02-15T15:56:34.762Z,10.32
2019-02-15T16:00:39.515Z,10.27
2019-02-15T16:04:56.170Z,10.25
2019-02-15T16:09:00.430Z,10.25
2019-02-15T16:13:04.660Z,10.20
2019-02-15T16:17:09.002Z,10.15
2019-02-15T16:21:13.249Z,10.12
2019-02-15T16:25:17.478Z,10.10
2019-02-15T16:29:21.686Z,10.05
2019-02-15T16:33:26.125Z,9.99
2019-02-15T16:37:30.320Z,9.96
2019-02-15T16:41:34.565Z,9.92
2019-02-15T16:45:38.788Z,9.81
2019-02-15T16:49:43.409Z,9.60
2019-02-15T16:53:48.132Z,9.42
2019-02-15T16:57:52.376Z,9.27
2019-02-15T17:01:56.634Z,9.20
2019-02-15T17:06:00.995Z,9.17
2019-02-15T17:10:05.591Z,9.03
2019-02-15T17:14:09.884Z,8.91
2019-02-15T17:18:14.461Z,8.80
2019-02-15T17:22:18.693Z,8.77
2019-02-15T17:26:22.939Z,8.76
2019-02-15T17:30:27.626Z,8.72
2019-02-15T17:38:41.971Z,8.62
2019-02-15T17:42:46.250Z,8.52
2019-02-15T17:46:50.442Z,8.42
2019-02-15T17:50:54.676Z,8.35
2019-02-15T17:54:58.896Z,8.29
2019-02-15T17:59:03.131Z,8.22
2019-02-15T18:03:07.659Z,8.15
2019-02-15T18:07:12.024Z,8.04
2019-02-15T18:11:16.216Z,7.96
2019-02-15T18:15:20.466Z,7.87
2019-02-15T18:19:24.660Z,7.77
2019-02-15T18:23:28.885Z,7.74
2019-02-15T18:27:33.143Z,7.72
2019-02-15T18:31:37.318Z,7.69
2019-02-15T18:35:41.554Z,7.59
2019-02-15T18:39:45.921Z,7.47
2019-02-15T18:43:50.107Z,7.37
2019-02-15T18:47:54.471Z,7.34
2019-02-15T18:51:58.808Z,7.31
2019-02-15T18:56:03.029Z,7.28
2019-02-15T19:00:09.426Z,7.25
2019-02-15T19:04:13.633Z,7.23
2019-02-15T19:08:17.965Z,7.19
2019-02-15T19:12:22.228Z,7.15
2019-02-15T19:16:26.530Z,7.13
2019-02-15T19:20:30.765Z,7.12
2019-02-15T19:24:35.140Z,7.10
2019-02-15T19:28:39.453Z,7.06
2019-02-15T19:32:43.802Z,7.03
2019-02-15T19:36:47.946Z,7.00
2019-02-15T19:40:52.195Z,6.94
2019-02-15T19:44:56.469Z,6.87
2019-02-15T19:49:00.655Z,6.78
2019-02-15T19:53:04.882Z,6.71
2019-02-15T19:57:09.122Z,6.63
2019-02-15T20:01:13.613Z,6.49
2019-02-15T20:05:17.858Z,6.36
2019-02-15T20:09:22.109Z,6.28
2019-02-15T20:13:26.322Z,6.22
2019-02-15T20:17:31.804Z,6.17
2019-02-15T20:21:36.060Z,6.11
2019-02-15T20:25:40.603Z,6.06
2019-02-15T20:29:49.576Z,5.98
2019-02-15T20:33:50.829Z,5.88
2019-02-15T20:37:55.133Z,5.78
2019-02-15T20:41:59.346Z,5.66
2019-02-15T20:46:03.672Z,5.55
2019-02-15T20:50:08.658Z,5.49
2019-02-15T20:54:13.308Z,5.46
2019-02-15T20:58:17.564Z,5.42
2019-02-15T21:02:21.809Z,5.42
2019-02-15T21:06:26.042Z,5.39
2019-02-15T21:10:30.352Z,5.37
2019-02-15T21:14:34.860Z,5.35
2019-02-15T21:18:39.093Z,5.31
2019-02-15T21:22:43.361Z,5.24
2019-02-15T21:26:47.587Z,5.09
2019-02-15T21:30:51.775Z,4.98
2019-02-15T21:34:56.358Z,4.94
2019-02-15T21:39:00.915Z,4.86
2019-02-15T21:43:05.263Z,4.74
2019-02-15T21:47:09.482Z,4.68
2019-02-15T21:51:13.726Z,4.65
2019-02-15T21:55:17.953Z,4.59
2019-02-15T21:59:22.169Z,4.53
2019-02-15T22:03:26.908Z,4.50
2019-02-15T22:07:31.087Z,4.47
2019-02-15T22:11:35.407Z,4.47
2019-02-15T22:15:39.959Z,4.43
2019-02-15T22:19:44.181Z,4.39
2019-02-15T22:23:48.425Z,4.37
2019-02-15T22:27:52.597Z,4.32
2019-02-15T22:31:56.785Z,4.27
2019-02-15T22:36:01.351Z,4.20
2019-02-15T22:40:28.566Z,4.18
2019-02-15T22:44:33.103Z,4.11
2019-02-15T22:48:37.322Z,4.03
2019-02-15T22:52:41.533Z,4.03
2019-02-15T22:56:45.755Z,4.05
2019-02-15T23:01:05.593Z,4.05
2019-02-15T23:05:09.842Z,4.02
2019-02-15T23:09:23.733Z,3.96
2019-02-15T23:13:27.979Z,3.88
2019-02-15T23:17:32.167Z,3.83
2019-02-15T23:21:36.796Z,3.74
2019-02-15T23:25:41.104Z,3.66
2019-02-15T23:29:45.624Z,3.62
2019-02-15T23:33:49.919Z,3.58
2019-02-15T23:37:54.092Z,3.56
2019-02-15T23:41:58.336Z,3.54
2019-02-15T23:46:02.530Z,3.51
2019-02-15T23:50:07.904Z,3.49
2019-02-15T23:54:12.141Z,3.44
2019-02-15T23:58:16.716Z,3.42
